createdAt,value
2023-01-13T00:01:32.609Z,19582.16
2023-01-13T00:04:01.182Z,19549.63
2023-01-13T00:06:29.586Z,19586.22
2023-01-13T00:08:57.989Z,19561.84
2023-01-13T00:11:27.788Z,19572.00
2023-01-13T00:13:56.097Z,19553.72
2023-01-13T00:16:24.329Z,19527.28
2023-01-13T00:18:52.541Z,19521.19
2023-01-13T00:21:23.154Z,19529.31
2023-01-13T00:23:53.892Z,19529.31
2023-01-13T00:26:25.147Z,19551.69
2023-01-13T00:28:58.779Z,19567.94
2023-01-13T00:31:28.137Z,19592.31
2023-01-13T00:33:58.209Z,19557.78
2023-01-13T00:36:26.432Z,19565.91
2023-01-13T00:38:55.167Z,19543.53
2023-01-13T00:41:25.834Z,19515.09
2023-01-13T00:43:54.478Z,19535.41
2023-01-13T00:46:23.926Z,19539.47
2023-01-13T00:48:52.910Z,19567.94
2023-01-13T00:51:22.778Z,19517.13
2023-01-13T00:53:52.826Z,19509.00
2023-01-13T00:56:39.035Z,19525.25
2023-01-13T00:59:11.761Z,19551.69
2023-01-13T01:01:40.736Z,19547.59
2023-01-13T01:04:09.016Z,19525.25
2023-01-13T01:06:37.394Z,19537.44
2023-01-13T01:09:06.908Z,19545.56
2023-01-13T01:11:36.099Z,19572.00
2023-01-13T01:14:05.565Z,19531.34
2023-01-13T01:16:36.401Z,19555.75
2023-01-13T01:19:05.107Z,19610.59
2023-01-13T01:21:35.165Z,19569.97
2023-01-13T01:24:05.922Z,19594.34
2023-01-13T01:26:34.417Z,19545.56
2023-01-13T01:29:03.116Z,19555.75
2023-01-13T01:31:34.995Z,19561.84
2023-01-13T01:34:03.660Z,19549.63
2023-01-13T01:36:31.868Z,19572.00
2023-01-13T01:39:01.203Z,19567.94
2023-01-13T01:41:33.864Z,19567.94
2023-01-13T01:44:08.444Z,19553.72
2023-01-13T01:46:41.025Z,19537.44
2023-01-13T01:49:17.303Z,19572.00
2023-01-13T01:51:50.964Z,19569.97
2023-01-13T01:54:27.267Z,19598.41
2023-01-13T01:56:56.578Z,19547.59
2023-01-13T01:59:27.196Z,19553.72
2023-01-13T02:01:57.184Z,19569.97
2023-01-13T02:04:32.027Z,19580.13
2023-01-13T02:07:01.962Z,19559.81
2023-01-13T02:09:31.603Z,19567.94
2023-01-13T02:12:17.623Z,19557.78
2023-01-13T02:14:46.439Z,19588.25
2023-01-13T02:17:45.899Z,19590.28
2023-01-13T02:20:46.129Z,19612.63
2023-01-13T02:24:39.941Z,19563.88
2023-01-13T02:27:55.745Z,19563.88
2023-01-13T02:30:54.184Z,19610.59
2023-01-13T02:33:45.320Z,19569.97
2023-01-13T02:36:28.116Z,19610.59
2023-01-13T02:39:05.603Z,19576.06
2023-01-13T02:42:00.744Z,19580.13
2023-01-13T02:44:37.093Z,19643.13
2023-01-13T02:47:15.210Z,19569.97
2023-01-13T02:49:50.536Z,19594.34
2023-01-13T02:52:26.881Z,19606.53
2023-01-13T02:55:01.675Z,19596.38
2023-01-13T02:57:35.085Z,19608.56
2023-01-13T03:00:07.036Z,19572.00
2023-01-13T03:02:36.834Z,19594.34
2023-01-13T03:05:06.643Z,19559.81
2023-01-13T03:08:08.660Z,19557.78
2023-01-13T03:10:54.414Z,19565.91
2023-01-13T03:13:47.152Z,19610.59
2023-01-13T03:16:29.305Z,19602.47
2023-01-13T03:19:14.634Z,19600.44
2023-01-13T03:21:52.612Z,19578.09
2023-01-13T03:24:29.535Z,19626.88
2023-01-13T03:27:05.382Z,19608.56
2023-01-13T03:29:40.431Z,19612.63
2023-01-13T03:32:17.954Z,19578.09
2023-01-13T03:34:52.681Z,19567.94
2023-01-13T03:37:26.453Z,19578.09
2023-01-13T03:40:01.350Z,19586.22
2023-01-13T03:42:34.591Z,19596.38
2023-01-13T03:45:10.184Z,19569.97
2023-01-13T03:47:47.946Z,19578.09
2023-01-13T03:50:24.323Z,19549.63
2023-01-13T03:52:59.820Z,19586.22
2023-01-13T03:55:35.627Z,19563.88
2023-01-13T03:58:10.942Z,19578.09
2023-01-13T04:00:48.961Z,19567.94
2023-01-13T04:03:24.274Z,19596.38
2023-01-13T04:06:04.792Z,19561.84
2023-01-13T04:08:37.573Z,19572.00
2023-01-13T04:11:15.570Z,19547.59
2023-01-13T04:13:49.694Z,19594.34
2023-01-13T04:16:17.956Z,19580.13
2023-01-13T04:18:46.106Z,19549.63
2023-01-13T04:21:15.622Z,19533.38
2023-01-13T04:23:43.747Z,19527.28
2023-01-13T04:26:11.897Z,19574.03
2023-01-13T04:28:40.794Z,19574.03
2023-01-13T04:31:08.988Z,19545.56
2023-01-13T04:33:37.571Z,19541.50
2023-01-13T04:36:06.517Z,19576.06
2023-01-13T04:38:36.122Z,19557.78
2023-01-13T04:41:04.246Z,19545.56
2023-01-13T04:43:32.382Z,19569.97
2023-01-13T04:46:00.594Z,19553.72
2023-01-13T04:48:28.758Z,19559.81
2023-01-13T04:50:56.872Z,19545.56
2023-01-13T04:53:25.076Z,19509.00
2023-01-13T04:55:55.037Z,19574.03
2023-01-13T04:58:23.132Z,19574.03
2023-01-13T05:00:51.937Z,19557.78
2023-01-13T05:03:20.098Z,19569.97
2023-01-13T05:05:53.132Z,19582.16
2023-01-13T05:08:21.247Z,19563.88
2023-01-13T05:10:49.352Z,19569.97
2023-01-13T05:13:35.497Z,19535.41
2023-01-13T05:16:17.667Z,19567.94
2023-01-13T05:18:45.933Z,19553.72
2023-01-13T05:21:27.999Z,19557.78
2023-01-13T05:24:13.535Z,19537.44
2023-01-13T05:26:41.716Z,19561.84
2023-01-13T05:29:11.282Z,19533.38
2023-01-13T05:31:39.421Z,19543.53
2023-01-13T05:34:07.516Z,19551.69
2023-01-13T05:36:35.634Z,19545.56
2023-01-13T05:39:05.228Z,19555.75
2023-01-13T05:41:50.663Z,19543.53
2023-01-13T05:44:20.176Z,19515.09
2023-01-13T05:46:48.390Z,19525.25
2023-01-13T05:49:16.523Z,19565.91
2023-01-13T05:51:44.723Z,19549.63
2023-01-13T05:54:12.964Z,19515.09
2023-01-13T05:56:41.078Z,19586.22
2023-01-13T05:59:09.229Z,19557.78
2023-01-13T06:01:38.738Z,19574.03
2023-01-13T06:04:07.007Z,19549.63
2023-01-13T06:06:35.130Z,19596.38
2023-01-13T06:09:03.219Z,19596.38
2023-01-13T06:11:31.552Z,19561.84
2023-01-13T06:13:59.675Z,19574.03
2023-01-13T06:16:27.855Z,19549.63
2023-01-13T06:18:57.366Z,19545.56
2023-01-13T06:21:25.537Z,19565.91
2023-01-13T06:23:53.925Z,19578.09
2023-01-13T06:26:25.964Z,19572.00
2023-01-13T06:28:54.138Z,19513.06
2023-01-13T06:31:22.804Z,19531.34
2023-01-13T06:33:57.165Z,19513.06
2023-01-13T06:36:34.071Z,19523.22
2023-01-13T06:39:05.028Z,19478.50
2023-01-13T06:41:52.308Z,19464.28
2023-01-13T06:44:22.115Z,19511.03
2023-01-13T06:46:50.522Z,19478.50
2023-01-13T06:49:21.401Z,19498.84
2023-01-13T06:51:51.157Z,19411.44
2023-01-13T06:54:19.351Z,19383.00
2023-01-13T06:56:47.503Z,19366.75
2023-01-13T06:59:15.632Z,19368.78
2023-01-13T07:01:44.614Z,19330.16
2023-01-13T07:04:13.627Z,19334.22
2023-01-13T07:06:41.763Z,19320.00
2023-01-13T07:09:11.394Z,19299.69
2023-01-13T07:11:39.737Z,19307.81
2023-01-13T07:14:25.221Z,19313.91
2023-01-13T07:16:54.201Z,19261.06
2023-01-13T07:19:24.190Z,19252.94
2023-01-13T07:21:52.761Z,19236.69
2023-01-13T07:24:22.828Z,19226.53
2023-01-13T07:26:52.526Z,19224.50
2023-01-13T07:29:20.723Z,19228.56
2023-01-13T07:31:50.280Z,19224.50
2023-01-13T07:34:18.614Z,19177.75
2023-01-13T07:36:46.719Z,19210.28
2023-01-13T07:39:14.849Z,19192.00
2023-01-13T07:42:01.987Z,19198.09
2023-01-13T07:44:30.128Z,19171.66
2023-01-13T07:46:58.253Z,19200.13
2023-01-13T07:49:26.406Z,19171.66
2023-01-13T07:51:54.529Z,19155.41
2023-01-13T07:54:35.213Z,19153.38
2023-01-13T07:57:09.055Z,19171.66
2023-01-13T07:59:37.459Z,19143.22
2023-01-13T08:02:05.783Z,19171.66
2023-01-13T08:04:35.101Z,19200.13
2023-01-13T08:07:03.299Z,19179.78
2023-01-13T08:09:31.487Z,19167.59
2023-01-13T08:12:13.568Z,19159.47
2023-01-13T08:14:43.492Z,19129.00
2023-01-13T08:17:12.151Z,19126.97
2023-01-13T08:19:40.307Z,19159.47
2023-01-13T08:22:08.470Z,19151.34
2023-01-13T08:24:36.648Z,19078.19
2023-01-13T08:27:05.028Z,19153.38
2023-01-13T08:29:33.212Z,19183.84
2023-01-13T08:32:02.781Z,19153.38
2023-01-13T08:34:30.997Z,19161.50
2023-01-13T08:36:59.118Z,19179.78
2023-01-13T08:39:27.349Z,19143.22
2023-01-13T08:41:58.538Z,19151.34
2023-01-13T08:44:29.315Z,19192.00
2023-01-13T08:46:58.174Z,19183.84
2023-01-13T08:49:27.871Z,19159.47
2023-01-13T08:51:56.138Z,19139.16
2023-01-13T08:54:24.422Z,19179.78
2023-01-13T08:56:52.703Z,19185.88
2023-01-13T08:59:21.814Z,19181.81
2023-01-13T09:01:50.145Z,19198.09
2023-01-13T09:04:22.781Z,19212.31
2023-01-13T09:06:53.001Z,19230.59
2023-01-13T09:09:21.334Z,19204.19
2023-01-13T09:12:10.332Z,19208.25
2023-01-13T09:14:40.422Z,19200.13
2023-01-13T09:17:08.707Z,19196.06
2023-01-13T09:19:37.496Z,19212.31
2023-01-13T09:22:07.078Z,19242.78
2023-01-13T09:24:35.214Z,19275.31
2023-01-13T09:27:03.358Z,19248.88
2023-01-13T09:29:31.629Z,19236.69
2023-01-13T09:32:00.058Z,19291.56
2023-01-13T09:34:53.967Z,19248.88
2023-01-13T09:37:23.495Z,19238.72
2023-01-13T09:39:52.973Z,19254.97
2023-01-13T09:42:51.345Z,19236.69
2023-01-13T09:45:24.311Z,19275.31
2023-01-13T09:48:00.915Z,19218.41
2023-01-13T09:50:58.917Z,19277.34
2023-01-13T09:53:35.086Z,19232.63
2023-01-13T09:56:03.600Z,19238.72
2023-01-13T09:58:31.747Z,19275.31
2023-01-13T10:01:15.320Z,19273.28
2023-01-13T10:03:43.758Z,19271.25
2023-01-13T10:06:18.457Z,19287.50
2023-01-13T10:08:50.355Z,19267.16
2023-01-13T10:11:39.613Z,19271.25
2023-01-13T10:14:19.393Z,19305.78
2023-01-13T10:17:06.700Z,19326.09
2023-01-13T10:19:45.323Z,19342.34
2023-01-13T10:22:46.520Z,19344.41
2023-01-13T10:25:31.853Z,19336.25
2023-01-13T10:28:11.335Z,19311.88
2023-01-13T10:30:42.209Z,19385.03
2023-01-13T10:33:17.491Z,19354.56
2023-01-13T10:35:56.587Z,19387.06
2023-01-13T10:38:28.775Z,19395.19
2023-01-13T10:41:01.275Z,19403.31
2023-01-13T10:43:32.016Z,19378.94
2023-01-13T10:46:05.156Z,19413.47
2023-01-13T10:48:38.458Z,19383.00
2023-01-13T10:51:22.082Z,19374.88
2023-01-13T10:54:01.483Z,19370.81
2023-01-13T10:56:34.630Z,19391.13
2023-01-13T10:59:18.436Z,19354.56
2023-01-13T11:02:04.041Z,19387.06
2023-01-13T11:04:39.605Z,19376.91
2023-01-13T11:07:28.177Z,19372.84
2023-01-13T11:10:15.076Z,19399.25
2023-01-13T11:12:53.806Z,19419.59
2023-01-13T11:15:34.927Z,19374.88
2023-01-13T11:18:14.585Z,19443.97
2023-01-13T11:20:47.458Z,19439.91
2023-01-13T11:23:27.241Z,19439.91
2023-01-13T11:26:03.699Z,19437.88
2023-01-13T11:28:45.134Z,19421.63
2023-01-13T11:31:22.090Z,19443.97
2023-01-13T11:33:59.532Z,19474.44
2023-01-13T11:36:38.389Z,19478.50
2023-01-13T11:39:22.252Z,19513.06
2023-01-13T11:42:16.973Z,19517.13
2023-01-13T11:44:55.938Z,19500.88
2023-01-13T11:47:27.581Z,19537.44
2023-01-13T11:49:56.465Z,19523.22
2023-01-13T11:52:36.327Z,19547.59
2023-01-13T11:55:32.136Z,19519.16
2023-01-13T11:59:01.347Z,19547.59
2023-01-13T12:01:50.126Z,19557.78
2023-01-13T12:04:39.937Z,19557.78
2023-01-13T12:07:22.177Z,19632.97
2023-01-13T12:10:13.253Z,19612.63
2023-01-13T12:12:52.675Z,19604.50
2023-01-13T12:15:46.215Z,19582.16
2023-01-13T12:18:43.964Z,19647.19
2023-01-13T12:21:23.175Z,19647.19
2023-01-13T12:24:13.143Z,19594.34
2023-01-13T12:26:50.282Z,19630.94
2023-01-13T12:29:21.537Z,19608.56
2023-01-13T12:31:51.620Z,19626.88
2023-01-13T12:34:48.293Z,19606.53
2023-01-13T12:37:30.277Z,19618.75
2023-01-13T12:40:21.450Z,19586.22
2023-01-13T12:43:17.161Z,19600.44
2023-01-13T12:45:45.462Z,19561.84
2023-01-13T12:48:49.193Z,19582.16
2023-01-13T12:51:33.005Z,19580.13
2023-01-13T12:54:03.248Z,19569.97
2023-01-13T12:56:42.049Z,19659.38
2023-01-13T12:59:48.592Z,19563.88
2023-01-13T13:02:34.489Z,19618.75
2023-01-13T13:05:49.945Z,19698.00
2023-01-13T13:08:50.944Z,19702.06
2023-01-13T13:11:57.316Z,19702.06
2023-01-13T13:15:06.755Z,19726.44
2023-01-13T13:17:44.349Z,19732.53
2023-01-13T13:20:54.976Z,19763.03
2023-01-13T13:23:39.053Z,19767.09
2023-01-13T13:26:30.784Z,19763.03
2023-01-13T13:29:20.807Z,19702.06
2023-01-13T13:32:39.007Z,19651.25
2023-01-13T13:35:37.194Z,19635.00
2023-01-13T13:38:43.303Z,19618.75
2023-01-13T13:41:38.103Z,19630.94
2023-01-13T13:44:35.438Z,19657.34
2023-01-13T13:47:06.696Z,19630.94
2023-01-13T13:49:41.839Z,19620.78
2023-01-13T13:52:20.610Z,19594.34
2023-01-13T13:54:52.738Z,19596.38
2023-01-13T13:57:31.991Z,19618.75
2023-01-13T14:00:01.882Z,19592.31
2023-01-13T14:02:33.444Z,19578.09
2023-01-13T14:05:21.698Z,19567.94
2023-01-13T14:07:52.441Z,19553.72
2023-01-13T14:10:25.728Z,19580.13
2023-01-13T14:12:55.253Z,19567.94
2023-01-13T14:15:36.632Z,19582.16
2023-01-13T14:18:12.080Z,19567.94
2023-01-13T14:20:40.854Z,19521.19
2023-01-13T14:23:19.105Z,19531.34
2023-01-13T14:25:50.339Z,19563.88
2023-01-13T14:28:27.698Z,19580.13
2023-01-13T14:30:58.120Z,19547.59
2023-01-13T14:33:36.194Z,19578.09
2023-01-13T14:36:18.976Z,19523.22
2023-01-13T14:38:49.291Z,19498.84
2023-01-13T14:41:26.615Z,19529.31
2023-01-13T14:44:00.306Z,19519.16
2023-01-13T14:46:39.761Z,19545.56
2023-01-13T14:49:24.382Z,19527.28
2023-01-13T14:51:54.135Z,19533.38
2023-01-13T14:54:49.042Z,19492.75
2023-01-13T14:57:27.580Z,19470.38
2023-01-13T15:00:20.144Z,19482.56
2023-01-13T15:02:51.374Z,19450.06
2023-01-13T15:05:49.281Z,19523.22
2023-01-13T15:08:38.542Z,19474.44
2023-01-13T15:11:19.930Z,19468.34
2023-01-13T15:13:59.469Z,19504.94
2023-01-13T15:16:33.854Z,19460.22
2023-01-13T15:19:03.344Z,19504.94
2023-01-13T15:21:31.426Z,19466.31
2023-01-13T15:23:59.836Z,19460.22
2023-01-13T15:26:30.845Z,19435.84
2023-01-13T15:29:01.173Z,19437.88
2023-01-13T15:31:30.706Z,19462.25
2023-01-13T15:34:00.382Z,19472.41
2023-01-13T15:36:31.750Z,19468.34
2023-01-13T15:39:01.790Z,19454.13
2023-01-13T15:41:47.848Z,19409.41
2023-01-13T15:44:35.111Z,19443.97
2023-01-13T15:47:09.235Z,19443.97
2023-01-13T15:49:41.757Z,19437.88
2023-01-13T15:52:21.387Z,19466.31
2023-01-13T15:54:50.017Z,19435.84
2023-01-13T15:57:24.215Z,19486.66
2023-01-13T15:59:56.489Z,19484.59
2023-01-13T16:02:26.446Z,19484.59
2023-01-13T16:04:54.829Z,19460.22
2023-01-13T16:07:26.103Z,19498.84
2023-01-13T16:09:54.764Z,19468.34
2023-01-13T16:12:23.335Z,19496.81
2023-01-13T16:14:51.462Z,19527.28
2023-01-13T16:17:22.998Z,19482.56
2023-01-13T16:19:53.114Z,19551.69
2023-01-13T16:22:21.306Z,19502.91
2023-01-13T16:24:49.464Z,19519.16
2023-01-13T16:27:20.591Z,19468.34
2023-01-13T16:29:50.094Z,19519.16
2023-01-13T16:32:20.705Z,19509.00
2023-01-13T16:34:49.016Z,19551.69
2023-01-13T16:37:24.452Z,19521.19
2023-01-13T16:39:54.266Z,19511.03
2023-01-13T16:42:22.843Z,19549.63
2023-01-13T16:44:52.830Z,19494.78
2023-01-13T16:47:22.701Z,19543.53
2023-01-13T16:49:51.381Z,19511.03
2023-01-13T16:52:20.909Z,19537.44
2023-01-13T16:54:49.029Z,19539.47
2023-01-13T16:57:17.128Z,19543.53
2023-01-13T16:59:45.243Z,19545.56
2023-01-13T17:02:19.279Z,19494.78
2023-01-13T17:04:49.029Z,19521.19
2023-01-13T17:07:18.836Z,19545.56
2023-01-13T17:09:48.837Z,19545.56
2023-01-13T17:12:17.056Z,19533.38
2023-01-13T17:14:45.268Z,19537.44
2023-01-13T17:17:23.795Z,19567.94
2023-01-13T17:19:53.035Z,19547.59
2023-01-13T17:22:22.105Z,19541.50
2023-01-13T17:24:51.845Z,19545.56
2023-01-13T17:27:21.217Z,19551.69
2023-01-13T17:29:49.435Z,19545.56
2023-01-13T17:32:20.340Z,19521.19
2023-01-13T17:34:49.073Z,19509.00
2023-01-13T17:37:18.255Z,19541.50
2023-01-13T17:39:48.298Z,19549.63
2023-01-13T17:42:17.994Z,19529.31
2023-01-13T17:44:46.754Z,19537.44
2023-01-13T17:47:15.414Z,19509.00
2023-01-13T17:49:43.472Z,19502.91
2023-01-13T17:52:11.526Z,19490.72
2023-01-13T17:54:42.946Z,19525.25
2023-01-13T17:57:11.444Z,19545.56
2023-01-13T17:59:41.881Z,19537.44
2023-01-13T18:02:13.484Z,19511.03
2023-01-13T18:04:42.424Z,19476.47
2023-01-13T18:07:10.492Z,19480.53
2023-01-13T18:09:38.667Z,19527.28
2023-01-13T18:12:07.213Z,19466.31
2023-01-13T18:14:36.270Z,19509.00
2023-01-13T18:17:05.928Z,19509.00
2023-01-13T18:19:51.676Z,19498.84
2023-01-13T18:22:37.497Z,19492.75
2023-01-13T18:25:24.517Z,19478.50
2023-01-13T18:27:52.562Z,19500.88
2023-01-13T18:30:20.790Z,19506.97
2023-01-13T18:32:50.420Z,19488.69
2023-01-13T18:35:18.779Z,19452.09
2023-01-13T18:37:46.852Z,19531.34
2023-01-13T18:40:15.242Z,19486.66
2023-01-13T18:42:51.234Z,19474.44
2023-01-13T18:45:21.560Z,19472.41
2023-01-13T18:47:51.516Z,19456.16
2023-01-13T18:50:19.787Z,19466.31
2023-01-13T18:52:47.930Z,19464.28
2023-01-13T18:55:16.126Z,19460.22
2023-01-13T18:57:44.716Z,19466.31
2023-01-13T19:00:16.756Z,19468.34
2023-01-13T19:02:45.223Z,19437.88
2023-01-13T19:05:15.448Z,19415.50
2023-01-13T19:07:50.482Z,19437.88
2023-01-13T19:10:19.423Z,19443.97
2023-01-13T19:12:47.512Z,19411.44
2023-01-13T19:15:15.938Z,19443.97
2023-01-13T19:17:44.960Z,19429.75
2023-01-13T19:20:14.622Z,19431.78
2023-01-13T19:22:42.910Z,19439.91
2023-01-13T19:25:11.186Z,19395.19
2023-01-13T19:27:39.812Z,19439.91
2023-01-13T19:30:10.186Z,19462.25
2023-01-13T19:32:38.275Z,19468.34
2023-01-13T19:35:07.594Z,19450.06
2023-01-13T19:37:38.323Z,19423.66
2023-01-13T19:40:09.268Z,19423.66
2023-01-13T19:42:55.274Z,19417.56
2023-01-13T19:45:31.192Z,19458.19
2023-01-13T19:48:04.607Z,19448.03
2023-01-13T19:50:38.382Z,19423.66
2023-01-13T19:53:15.280Z,19464.28
2023-01-13T19:55:47.640Z,19437.88
2023-01-13T19:58:15.945Z,19441.94
2023-01-13T20:00:47.233Z,19460.22
2023-01-13T20:03:15.419Z,19472.41
2023-01-13T20:05:44.034Z,19454.13
2023-01-13T20:08:13.653Z,19470.38
2023-01-13T20:10:42.788Z,19460.22
2023-01-13T20:13:10.838Z,19480.53
2023-01-13T20:15:39.256Z,19456.16
2023-01-13T20:18:08.187Z,19452.09
2023-01-13T20:20:37.087Z,19448.03
2023-01-13T20:23:05.188Z,19429.75
2023-01-13T20:25:34.636Z,19427.72
2023-01-13T20:28:02.809Z,19480.53
2023-01-13T20:30:30.878Z,19425.69
2023-01-13T20:32:58.961Z,19437.88
2023-01-13T20:35:29.603Z,19446.00
2023-01-13T20:37:57.914Z,19443.97
2023-01-13T20:40:25.995Z,19468.34
2023-01-13T20:42:54.679Z,19441.94
2023-01-13T20:45:23.341Z,19433.81
2023-01-13T20:47:51.405Z,19464.28
2023-01-13T20:50:19.713Z,19446.00
2023-01-13T20:52:48.963Z,19458.19
2023-01-13T20:55:17.138Z,19419.59
2023-01-13T20:57:48.491Z,19421.63
2023-01-13T21:00:19.840Z,19419.59
2023-01-13T21:05:59.663Z,19401.28
2023-01-13T21:08:27.725Z,19411.44
2023-01-13T21:11:04.230Z,19435.84
2023-01-13T21:13:50.825Z,19417.56
2023-01-13T21:16:20.361Z,19399.25
2023-01-13T21:19:17.281Z,19360.66
2023-01-13T21:21:45.440Z,19383.00
2023-01-13T21:24:13.974Z,19385.03
2023-01-13T21:26:42.147Z,19391.13
2023-01-13T21:29:10.309Z,19360.66
2023-01-13T21:31:39.885Z,19397.22
2023-01-13T21:34:08.025Z,19340.31
2023-01-13T21:36:36.255Z,19358.63
2023-01-13T21:39:05.261Z,19328.13
2023-01-13T21:41:50.864Z,19370.81
2023-01-13T21:44:39.481Z,19346.44
2023-01-13T21:47:34.225Z,19342.34
2023-01-13T21:50:03.380Z,19336.25
2023-01-13T21:52:31.479Z,19342.34
2023-01-13T21:55:17.033Z,19344.41
2023-01-13T21:57:47.115Z,19326.09
2023-01-13T22:00:17.109Z,19334.22
2023-01-13T22:02:47.475Z,19309.84
2023-01-13T22:05:18.741Z,19307.81
2023-01-13T22:07:47.948Z,19320.00
2023-01-13T22:10:19.277Z,19336.25
2023-01-13T22:12:48.283Z,19383.00
2023-01-13T22:15:18.089Z,19313.91
2023-01-13T22:17:52.225Z,19293.59
2023-01-13T22:20:21.542Z,19352.53
2023-01-13T22:22:50.487Z,19358.63
2023-01-13T22:25:20.035Z,19317.97
2023-01-13T22:27:48.308Z,19354.56
2023-01-13T22:30:21.652Z,19350.50
2023-01-13T22:32:51.160Z,19293.59
2023-01-13T22:35:19.570Z,19320.00
2023-01-13T22:37:47.684Z,19326.09
2023-01-13T22:40:15.971Z,19354.56
2023-01-13T22:42:44.523Z,19324.06
2023-01-13T22:45:14.993Z,19313.91
2023-01-13T22:47:43.467Z,19315.94
2023-01-13T22:50:13.533Z,19311.88
2023-01-13T22:52:41.656Z,19320.00
2023-01-13T22:55:10.482Z,19301.72
2023-01-13T22:57:47.220Z,19311.88
2023-01-13T23:00:19.411Z,19320.00
2023-01-13T23:02:47.933Z,19293.59
2023-01-13T23:05:17.636Z,19293.59
2023-01-13T23:07:45.718Z,19309.84
2023-01-13T23:10:13.888Z,19285.47
2023-01-13T23:12:42.099Z,19289.53
2023-01-13T23:15:11.515Z,19303.75
2023-01-13T23:17:39.624Z,19289.53
2023-01-13T23:20:08.977Z,19265.13
2023-01-13T23:22:40.582Z,19273.28
2023-01-13T23:25:10.115Z,19287.50
2023-01-13T23:27:38.810Z,19267.16
2023-01-13T23:30:10.501Z,19275.31
2023-01-13T23:32:38.662Z,19315.94
2023-01-13T23:35:08.984Z,19311.88
2023-01-13T23:37:38.447Z,19281.41
2023-01-13T23:40:07.735Z,19285.47
2023-01-13T23:42:35.938Z,19315.94
2023-01-13T23:45:04.997Z,19281.41
2023-01-13T23:47:33.032Z,19305.78
2023-01-13T23:50:01.091Z,19326.09
2023-01-13T23:52:29.145Z,19297.66
2023-01-13T23:54:59.213Z,19281.41
2023-01-13T23:57:27.404Z,19307.81
2023-01-13T23:59:55.487Z,19309.84
